Time;durP1;ratioP1;P1;durP2;ratioP2;P2;SDS_P1;SDS_P2;PMS_P1;PMS_P2;Temp;Humidity;BMP_temperature;BMP_pressure;BME280_temperature;BME280_humidity;BME280_pressure;Samples;Min_cycle;Max_cycle;Signal;HPM_P1;HPM_P2
2021/08/22 00:00:52;;;;;;;18.52;16.73;;;;;;;;;;5100231;28;20447;-69
2021/08/22 00:03:18;;;;;;;17.67;15.90;;;;;;;;;;5113965;28;20122;-69
2021/08/22 00:05:45;;;;;;;17.73;16.00;;;;;;;;;;5110215;28;20314;-69
2021/08/22 00:08:12;;;;;;;18.30;16.42;;;;;;;;;;5106597;28;20445;-69
2021/08/22 00:10:38;;;;;;;19.25;17.40;;;;;;;;;;5099701;28;20040;-69
2021/08/22 00:13:04;;;;;;;18.65;16.88;;;;;;;;;;5107518;28;20039;-69
2021/08/22 00:15:30;;;;;;;21.35;19.25;;;;;;;;;;5108217;28;20167;-69
2021/08/22 00:17:56;;;;;;;20.75;18.75;;;;;;;;;;5110221;28;20049;-69
2021/08/22 00:20:23;;;;;;;22.38;20.23;;;;;;;;;;5103234;28;20239;-69
2021/08/22 00:22:49;;;;;;;22.20;20.05;;;;;;;;;;5090192;28;20116;-69
2021/08/22 00:25:16;;;;;;;24.00;21.67;;;;;;;;;;5106761;28;20115;-69
2021/08/22 00:27:42;;;;;;;20.05;18.15;;;;;;;;;;5084086;28;20415;-69
2021/08/22 00:30:08;;;;;;;20.00;18.10;;;;;;;;;;5110138;28;20475;-69
2021/08/22 00:32:34;;;;;;;20.88;18.98;;;;;;;;;;5105983;28;20036;-68
2021/08/22 00:35:01;;;;;;;22.27;20.08;;;;;;;;;;5108662;28;20080;-69
2021/08/22 00:37:29;;;;;;;19.92;18.08;;;;;;;;;;5092908;28;20072;-69
2021/08/22 00:39:57;;;;;;;21.15;18.95;;;;;;;;;;5111975;28;20241;-69
2021/08/22 00:42:24;;;;;;;21.85;19.75;;;;;;;;;;5100189;28;20058;-69
2021/08/22 00:44:51;;;;;;;22.08;19.77;;;;;;;;;;5110239;28;20406;-69
2021/08/22 00:47:17;;;;;;;20.95;19.13;;;;;;;;;;5106690;28;20031;-69
2021/08/22 00:49:43;;;;;;;21.42;19.33;;;;;;;;;;5115586;28;20118;-69
2021/08/22 00:52:09;;;;;;;22.02;19.80;;;;;;;;;;5103078;28;20056;-69
2021/08/22 00:54:36;;;;;;;22.48;20.27;;;;;;;;;;5101617;28;20040;-69
2021/08/22 00:57:02;;;;;;;23.35;20.88;;;;;;;;;;5100433;27;20067;-69
2021/08/22 00:59:28;;;;;;;22.77;20.67;;;;;;;;;;5111714;27;20042;-69
2021/08/22 01:01:55;;;;;;;23.02;20.98;;;;;;;;;;5107496;27;20036;-69
2021/08/22 01:04:28;;;;;;;22.17;20.02;;;;;;;;;;5109406;27;20091;-69
2021/08/22 01:07:00;;;;;;;23.77;21.48;;;;;;;;;;5118114;27;20545;-69
2021/08/22 01:09:31;;;;;;;23.20;21.08;;;;;;;;;;5106648;27;20570;-69
2021/08/22 01:11:59;;;;;;;22.92;20.67;;;;;;;;;;5110925;27;20035;-69
2021/08/22 01:14:27;;;;;;;22.33;20.00;;;;;;;;;;5108520;27;20031;-69
2021/08/22 01:16:54;;;;;;;22.85;20.55;;;;;;;;;;5117375;27;20587;-69
2021/08/22 01:19:20;;;;;;;22.58;20.27;;;;;;;;;;5106671;27;20475;-69
2021/08/22 01:21:47;;;;;;;23.50;20.88;;;;;;;;;;5113884;27;20032;-69
2021/08/22 01:24:13;;;;;;;24.33;21.80;;;;;;;;;;5092098;27;20035;-69
2021/08/22 01:26:40;;;;;;;28.35;23.88;;;;;;;;;;5109435;27;20031;-69
2021/08/22 01:29:07;;;;;;;31.20;26.15;;;;;;;;;;5107033;27;20074;-68
2021/08/22 01:31:39;;;;;;;32.45;28.80;;;;;;;;;;5115061;27;20047;-66
2021/08/22 01:34:06;;;;;;;29.20;25.95;;;;;;;;;;5102558;27;20082;-65
2021/08/22 01:36:34;;;;;;;32.58;27.70;;;;;;;;;;5119622;27;20134;-66
2021/08/22 01:39:00;;;;;;;31.83;28.45;;;;;;;;;;5101145;27;20046;-67
2021/08/22 01:41:27;;;;;;;35.15;29.65;;;;;;;;;;5107559;27;20100;-66
2021/08/22 01:43:54;;;;;;;31.33;28.10;;;;;;;;;;5106811;27;20153;-67
2021/08/22 01:46:28;;;;;;;36.45;29.98;;;;;;;;;;5116985;27;20035;-66
2021/08/22 01:48:55;;;;;;;35.45;30.30;;;;;;;;;;5104696;27;20027;-66
2021/08/22 01:51:21;;;;;;;33.22;29.20;;;;;;;;;;5114797;27;20035;-66
2021/08/22 01:53:47;;;;;;;33.38;29.83;;;;;;;;;;5116608;27;20040;-66
2021/08/22 01:56:13;;;;;;;32.47;29.30;;;;;;;;;;5102223;27;20031;-66
2021/08/22 01:58:41;;;;;;;36.05;30.75;;;;;;;;;;5110153;28;20095;-66
2021/08/22 02:01:08;;;;;;;33.42;29.17;;;;;;;;;;5105393;27;20063;-66
2021/08/22 02:03:50;;;;;;;30.08;26.98;;;;;;;;;;5121151;27;20169;-66
2021/08/22 02:06:24;;;;;;;33.42;29.92;;;;;;;;;;5105900;27;20046;-66
2021/08/22 02:08:52;;;;;;;34.20;30.38;;;;;;;;;;5103711;28;20044;-66
2021/08/22 02:11:21;;;;;;;36.03;31.17;;;;;;;;;;5107440;27;20081;-66
2021/08/22 02:13:49;;;;;;;34.60;29.77;;;;;;;;;;5116865;27;20043;-66
2021/08/22 02:16:17;;;;;;;36.50;31.30;;;;;;;;;;5100571;27;20047;-66
2021/08/22 02:18:45;;;;;;;35.85;31.90;;;;;;;;;;5112229;27;20043;-66
2021/08/22 02:21:11;;;;;;;35.55;31.73;;;;;;;;;;5112575;27;20058;-66
2021/08/22 02:23:38;;;;;;;38.05;31.83;;;;;;;;;;5112349;27;20458;-66
2021/08/22 02:26:04;;;;;;;34.58;30.98;;;;;;;;;;5104903;27;20399;-66
2021/08/22 02:28:31;;;;;;;44.22;32.92;;;;;;;;;;5117558;27;20427;-66
2021/08/22 02:30:58;;;;;;;53.83;37.30;;;;;;;;;;5105868;27;20462;-66
2021/08/22 02:33:24;;;;;;;40.67;34.60;;;;;;;;;;5109245;27;20058;-66
2021/08/22 02:35:50;;;;;;;97.60;44.47;;;;;;;;;;5102506;27;20147;-66
2021/08/22 02:38:17;;;;;;;48.10;37.72;;;;;;;;;;5117739;27;20047;-66
2021/08/22 02:40:43;;;;;;;65.75;43.70;;;;;;;;;;5106871;27;20404;-66
2021/08/22 02:43:09;;;;;;;50.50;38.72;;;;;;;;;;5104406;27;20054;-66
2021/08/22 02:45:35;;;;;;;67.65;43.65;;;;;;;;;;5095032;28;20482;-66
2021/08/22 02:48:02;;;;;;;64.05;41.30;;;;;;;;;;5109804;27;20048;-66
2021/08/22 02:50:29;;;;;;;55.25;36.63;;;;;;;;;;5108988;27;20201;-66
2021/08/22 02:52:55;;;;;;;76.50;43.35;;;;;;;;;;5084151;27;20050;-66
2021/08/22 02:55:22;;;;;;;52.45;39.72;;;;;;;;;;5112667;27;20073;-66
2021/08/22 02:57:48;;;;;;;75.55;44.70;;;;;;;;;;5106094;27;20050;-66
2021/08/22 03:00:15;;;;;;;42.70;36.58;;;;;;;;;;5106560;27;20031;-66
2021/08/22 03:02:41;;;;;;;68.70;43.15;;;;;;;;;;5106753;27;20066;-66
2021/08/22 03:05:07;;;;;;;72.88;42.80;;;;;;;;;;5115380;27;20556;-66
2021/08/22 03:07:33;;;;;;;109.05;46.97;;;;;;;;;;5098604;28;20036;-67
2021/08/22 03:09:59;;;;;;;60.70;39.50;;;;;;;;;;5110206;27;20479;-66
2021/08/22 03:12:26;;;;;;;51.65;37.60;;;;;;;;;;5111157;27;20053;-66
2021/08/22 03:14:52;;;;;;;46.53;36.63;;;;;;;;;;5114631;27;20055;-66
2021/08/22 03:17:18;;;;;;;43.47;36.70;;;;;;;;;;5100850;27;20072;-66
2021/08/22 03:19:44;;;;;;;61.30;42.42;;;;;;;;;;5111522;27;20039;-66
2021/08/22 03:22:10;;;;;;;47.15;37.85;;;;;;;;;;5114591;27;20036;-66
2021/08/22 03:24:37;;;;;;;46.38;36.92;;;;;;;;;;5111616;27;20031;-66
2021/08/22 03:27:04;;;;;;;77.35;43.08;;;;;;;;;;5105959;27;20031;-66
2021/08/22 03:29:30;;;;;;;270.55;62.25;;;;;;;;;;5104154;27;20047;-66
2021/08/22 03:31:56;;;;;;;276.58;73.68;;;;;;;;;;5114075;27;20127;-66
2021/08/22 03:34:22;;;;;;;246.38;67.15;;;;;;;;;;5102906;27;20047;-66
2021/08/22 03:36:48;;;;;;;82.13;40.97;;;;;;;;;;5112862;27;20085;-66
2021/08/22 03:39:14;;;;;;;54.03;41.67;;;;;;;;;;5100057;27;20067;-67
2021/08/22 03:41:41;;;;;;;61.30;41.47;;;;;;;;;;5106483;28;20071;-67
2021/08/22 03:44:08;;;;;;;422.08;82.07;;;;;;;;;;5105827;27;20062;-67
2021/08/22 03:46:35;;;;;;;495.30;88.03;;;;;;;;;;5111382;27;20040;-68
2021/08/22 03:49:01;;;;;;;99.57;49.88;;;;;;;;;;5111873;27;20039;-68
2021/08/22 03:51:27;;;;;;;121.50;51.22;;;;;;;;;;5107038;27;20031;-67
2021/08/22 03:53:53;;;;;;;81.05;48.42;;;;;;;;;;5102286;27;20040;-68
2021/08/22 03:56:19;;;;;;;405.40;87.50;;;;;;;;;;5104213;28;20036;-68
2021/08/22 03:58:46;;;;;;;118.13;56.25;;;;;;;;;;5111614;28;20148;-67
2021/08/22 04:01:12;;;;;;;193.10;63.85;;;;;;;;;;5108117;28;20048;-67
2021/08/22 04:03:40;;;;;;;111.40;52.63;;;;;;;;;;5112177;28;20370;-67
2021/08/22 04:06:07;;;;;;;107.10;55.17;;;;;;;;;;5112055;28;20057;-66
2021/08/22 04:08:35;;;;;;;90.60;47.08;;;;;;;;;;5111115;28;20407;-66
2021/08/22 04:11:01;;;;;;;88.57;51.33;;;;;;;;;;5102285;28;20093;-66
2021/08/22 04:13:28;;;;;;;81.10;50.28;;;;;;;;;;5096587;28;20039;-66
2021/08/22 04:15:54;;;;;;;92.70;51.88;;;;;;;;;;5108557;28;20046;-66
2021/08/22 04:18:20;;;;;;;84.25;51.05;;;;;;;;;;5106906;28;20130;-66
2021/08/22 04:20:46;;;;;;;103.07;54.88;;;;;;;;;;5101099;28;20040;-66
2021/08/22 04:23:12;;;;;;;86.32;52.60;;;;;;;;;;5112335;28;20047;-66
2021/08/22 04:25:38;;;;;;;86.43;50.65;;;;;;;;;;5099345;28;20065;-66
2021/08/22 04:28:06;;;;;;;97.15;54.67;;;;;;;;;;5103617;28;20540;-66
2021/08/22 04:30:32;;;;;;;81.90;51.85;;;;;;;;;;5105778;27;20055;-66
2021/08/22 04:32:58;;;;;;;82.63;48.25;;;;;;;;;;5112501;27;20467;-66
2021/08/22 04:35:25;;;;;;;121.57;59.10;;;;;;;;;;5107938;27;20058;-66
2021/08/22 04:37:51;;;;;;;334.80;84.50;;;;;;;;;;5114069;27;20403;-66
2021/08/22 04:40:17;;;;;;;107.32;56.17;;;;;;;;;;5120921;27;20127;-66
2021/08/22 04:42:44;;;;;;;83.68;51.95;;;;;;;;;;5104929;27;20044;-66
2021/08/22 04:45:10;;;;;;;73.63;47.97;;;;;;;;;;5115922;27;20031;-66
2021/08/22 04:47:36;;;;;;;227.75;71.78;;;;;;;;;;5100213;27;20508;-66
2021/08/22 04:50:03;;;;;;;94.55;52.30;;;;;;;;;;5115038;27;20368;-66
2021/08/22 04:52:29;;;;;;;79.78;50.15;;;;;;;;;;5102183;27;20048;-66
2021/08/22 04:54:55;;;;;;;138.20;61.20;;;;;;;;;;5110302;27;20113;-66
2021/08/22 04:57:22;;;;;;;242.40;72.97;;;;;;;;;;5108230;27;20047;-66
2021/08/22 04:59:48;;;;;;;218.30;66.63;;;;;;;;;;5113316;27;20491;-66
2021/08/22 05:02:14;;;;;;;73.93;48.30;;;;;;;;;;5107400;27;20043;-66
2021/08/22 05:04:41;;;;;;;177.00;64.30;;;;;;;;;;5097157;28;20047;-66
2021/08/22 05:07:07;;;;;;;195.98;67.32;;;;;;;;;;5115303;27;20035;-66
2021/08/22 05:09:34;;;;;;;280.10;75.32;;;;;;;;;;5110892;27;20134;-66
2021/08/22 05:12:00;;;;;;;362.65;85.25;;;;;;;;;;5109349;27;20080;-66
2021/08/22 05:14:35;;;;;;;97.57;55.70;;;;;;;;;;5120794;27;20054;-66
2021/08/22 05:17:02;;;;;;;54.70;41.13;;;;;;;;;;5103641;27;20100;-66
2021/08/22 05:19:28;;;;;;;64.93;44.60;;;;;;;;;;5109419;27;20107;-66
2021/08/22 05:21:54;;;;;;;72.80;47.90;;;;;;;;;;5114784;27;20066;-66
2021/08/22 05:24:21;;;;;;;102.07;51.58;;;;;;;;;;5102384;27;20096;-66
2021/08/22 05:26:47;;;;;;;65.25;43.42;;;;;;;;;;5114908;27;20043;-66
2021/08/22 05:29:13;;;;;;;62.22;43.17;;;;;;;;;;5103073;27;20039;-66
2021/08/22 05:31:39;;;;;;;67.88;45.63;;;;;;;;;;5116736;27;20091;-66
2021/08/22 05:34:05;;;;;;;127.55;52.00;;;;;;;;;;5111207;27;20146;-66
2021/08/22 05:36:34;;;;;;;90.72;49.33;;;;;;;;;;5110882;27;20032;-66
2021/08/22 05:39:03;;;;;;;327.23;79.18;;;;;;;;;;5097611;27;20035;-66
2021/08/22 05:41:29;;;;;;;267.92;75.85;;;;;;;;;;5106009;27;20043;-66
2021/08/22 05:43:55;;;;;;;101.97;53.33;;;;;;;;;;5106781;27;20543;-66
2021/08/22 05:46:21;;;;;;;158.80;59.90;;;;;;;;;;5111425;27;20051;-66
2021/08/22 05:48:47;;;;;;;247.35;75.20;;;;;;;;;;5104088;27;20055;-66
2021/08/22 05:51:20;;;;;;;198.77;70.35;;;;;;;;;;5100288;27;20040;-66
2021/08/22 05:53:47;;;;;;;201.35;66.30;;;;;;;;;;5097718;27;20039;-66
2021/08/22 05:56:14;;;;;;;303.58;80.03;;;;;;;;;;5108614;27;20093;-66
2021/08/22 05:58:40;;;;;;;276.13;75.03;;;;;;;;;;5103374;27;20683;-66
2021/08/22 06:01:07;;;;;;;192.32;66.53;;;;;;;;;;5107920;27;20146;-66
2021/08/22 06:03:34;;;;;;;159.23;63.33;;;;;;;;;;5102459;27;20192;-66
2021/08/22 06:06:05;;;;;;;214.23;70.18;;;;;;;;;;5099662;27;20042;-66
2021/08/22 06:08:31;;;;;;;142.52;59.13;;;;;;;;;;5103289;27;20081;-67
2021/08/22 06:10:58;;;;;;;126.53;53.97;;;;;;;;;;5102020;27;20111;-67
2021/08/22 06:13:25;;;;;;;257.30;71.78;;;;;;;;;;5087046;28;20049;-67
2021/08/22 06:15:51;;;;;;;187.80;61.47;;;;;;;;;;5099927;27;20059;-67
2021/08/22 06:18:18;;;;;;;212.48;67.35;;;;;;;;;;5107937;27;20035;-67
2021/08/22 06:20:45;;;;;;;97.85;46.95;;;;;;;;;;5101546;27;20134;-67
2021/08/22 06:23:11;;;;;;;139.65;55.63;;;;;;;;;;5104990;27;20584;-66
2021/08/22 06:25:37;;;;;;;101.38;49.80;;;;;;;;;;5103972;27;20494;-66
2021/08/22 06:28:03;;;;;;;294.60;70.68;;;;;;;;;;5112898;27;20392;-67
2021/08/22 06:30:30;;;;;;;225.77;65.30;;;;;;;;;;5101411;27;20043;-67
2021/08/22 06:32:56;;;;;;;121.30;50.08;;;;;;;;;;5107917;27;20044;-67
2021/08/22 06:35:23;;;;;;;89.68;48.83;;;;;;;;;;5093221;27;20077;-66
2021/08/22 06:37:51;;;;;;;164.60;61.25;;;;;;;;;;5101376;28;20076;-66
2021/08/22 06:40:17;;;;;;;259.23;70.80;;;;;;;;;;5097852;27;20043;-66
2021/08/22 06:42:44;;;;;;;184.55;64.50;;;;;;;;;;5110956;27;20039;-66
2021/08/22 06:45:10;;;;;;;230.13;69.10;;;;;;;;;;5107720;27;20081;-67
2021/08/22 06:47:36;;;;;;;172.10;65.50;;;;;;;;;;5104429;27;20450;-67
2021/08/22 06:50:06;;;;;;;343.95;82.15;;;;;;;;;;5105787;27;20499;-67
2021/08/22 06:52:32;;;;;;;267.27;74.40;;;;;;;;;;5097082;27;20054;-67
2021/08/22 06:54:59;;;;;;;145.48;58.55;;;;;;;;;;5103962;28;20125;-67
2021/08/22 06:57:25;;;;;;;102.57;54.20;;;;;;;;;;5112024;27;20039;-66
2021/08/22 06:59:51;;;;;;;241.25;71.95;;;;;;;;;;5111359;27;20424;-66
2021/08/22 07:02:18;;;;;;;157.07;60.38;;;;;;;;;;5103996;27;20093;-66
2021/08/22 07:04:44;;;;;;;186.77;63.15;;;;;;;;;;5116684;27;20071;-66
2021/08/22 07:07:12;;;;;;;206.13;68.82;;;;;;;;;;5107311;27;20077;-66
2021/08/22 07:09:38;;;;;;;181.35;65.07;;;;;;;;;;5108526;27;20038;-66
2021/08/22 07:12:05;;;;;;;240.73;72.50;;;;;;;;;;5110381;27;20548;-66
2021/08/22 07:14:31;;;;;;;260.02;73.43;;;;;;;;;;5117423;27;20047;-66
2021/08/22 07:16:57;;;;;;;213.95;68.00;;;;;;;;;;5099368;28;20063;-66
2021/08/22 07:19:23;;;;;;;175.00;64.43;;;;;;;;;;5109569;27;20498;-66
2021/08/22 07:21:49;;;;;;;176.27;62.78;;;;;;;;;;5109222;27;20046;-66
2021/08/22 07:24:15;;;;;;;177.38;64.15;;;;;;;;;;5106569;27;20607;-66
2021/08/22 07:26:42;;;;;;;137.63;60.72;;;;;;;;;;5109763;27;20107;-66
2021/08/22 07:29:08;;;;;;;236.05;72.20;;;;;;;;;;5109880;27;20455;-66
2021/08/22 07:31:34;;;;;;;111.13;57.03;;;;;;;;;;5110866;27;20044;-66
2021/08/22 07:34:00;;;;;;;296.77;78.63;;;;;;;;;;5106737;27;20339;-66
2021/08/22 07:36:26;;;;;;;119.88;58.17;;;;;;;;;;5107231;28;20131;-66
2021/08/22 07:38:52;;;;;;;110.35;58.70;;;;;;;;;;5110598;27;20039;-66
2021/08/22 07:41:18;;;;;;;102.43;54.80;;;;;;;;;;5112236;27;20402;-66
2021/08/22 07:43:45;;;;;;;146.73;64.53;;;;;;;;;;5104452;27;20040;-66
2021/08/22 07:46:11;;;;;;;133.25;60.63;;;;;;;;;;5113883;27;20040;-66
2021/08/22 07:48:37;;;;;;;94.40;54.25;;;;;;;;;;5104093;27;20106;-66
2021/08/22 07:51:03;;;;;;;229.60;67.57;;;;;;;;;;5104256;27;20491;-66
2021/08/22 07:53:29;;;;;;;130.65;58.60;;;;;;;;;;5101133;28;20046;-66
2021/08/22 07:55:56;;;;;;;87.03;50.58;;;;;;;;;;5119241;27;20047;-66
2021/08/22 07:58:22;;;;;;;170.57;64.88;;;;;;;;;;5104380;27;20047;-66
2021/08/22 08:00:48;;;;;;;71.25;46.97;;;;;;;;;;5109898;28;20122;-66
2021/08/22 08:03:14;;;;;;;63.72;44.30;;;;;;;;;;5102910;28;20044;-66
2021/08/22 08:05:41;;;;;;;47.90;39.28;;;;;;;;;;5113194;27;20040;-66
2021/08/22 08:08:07;;;;;;;57.70;43.28;;;;;;;;;;5113683;27;20103;-66
2021/08/22 08:10:33;;;;;;;75.65;47.72;;;;;;;;;;5106173;27;20498;-67
2021/08/22 08:13:04;;;;;;;52.38;41.70;;;;;;;;;;5113716;27;20038;-67
2021/08/22 08:15:40;;;;;;;44.67;38.25;;;;;;;;;;5110957;27;20044;-67
2021/08/22 08:18:08;;;;;;;44.58;37.33;;;;;;;;;;5110743;27;20058;-67
2021/08/22 08:20:34;;;;;;;42.53;38.00;;;;;;;;;;5107759;27;20406;-67
2021/08/22 08:23:00;;;;;;;37.58;33.35;;;;;;;;;;5118472;27;20058;-67
2021/08/22 08:25:27;;;;;;;56.75;37.78;;;;;;;;;;5092316;28;20050;-67
2021/08/22 08:27:53;;;;;;;36.80;32.83;;;;;;;;;;5113834;27;20036;-67
2021/08/22 08:30:19;;;;;;;32.03;28.65;;;;;;;;;;5110371;27;20411;-66
2021/08/22 08:32:45;;;;;;;26.63;24.05;;;;;;;;;;5116076;27;20063;-66
2021/08/22 08:35:12;;;;;;;28.67;25.67;;;;;;;;;;5113206;27;20131;-66
2021/08/22 08:37:41;;;;;;;23.35;21.13;;;;;;;;;;5119264;27;20171;-66
2021/08/22 08:40:12;;;;;;;16.02;14.52;;;;;;;;;;5105109;27;20043;-66
2021/08/22 08:42:44;;;;;;;13.68;12.32;;;;;;;;;;5112160;27;20043;-66
2021/08/22 08:45:17;;;;;;;15.32;13.73;;;;;;;;;;5109627;27;20044;-66
2021/08/22 08:47:44;;;;;;;15.57;11.93;;;;;;;;;;5117349;27;20031;-66
2021/08/22 08:50:22;;;;;;;12.40;11.20;;;;;;;;;;5114433;27;20097;-66
2021/08/22 08:52:51;;;;;;;9.43;8.55;;;;;;;;;;5111594;27;20038;-66
2021/08/22 08:55:18;;;;;;;8.82;8.10;;;;;;;;;;5106152;27;21041;-66
2021/08/22 08:57:44;;;;;;;7.45;6.75;;;;;;;;;;5114519;27;20074;-66
2021/08/22 09:00:15;;;;;;;6.07;5.60;;;;;;;;;;5115572;27;20063;-66
2021/08/22 09:02:41;;;;;;;7.75;6.90;;;;;;;;;;5102061;27;20177;-65
2021/08/22 09:05:10;;;;;;;7.78;7.07;;;;;;;;;;5119187;27;20035;-66
2021/08/22 09:07:55;;;;;;;8.25;6.38;;;;;;;;;;5102978;27;20051;-66
2021/08/22 09:10:33;;;;;;;6.68;6.07;;;;;;;;;;5115468;27;20044;-66
2021/08/22 09:13:05;;;;;;;6.47;5.97;;;;;;;;;;5103192;27;20031;-66
2021/08/22 09:15:51;;;;;;;7.65;6.95;;;;;;;;;;5107380;27;20065;-66
2021/08/22 09:18:20;;;;;;;9.50;8.55;;;;;;;;;;5108308;27;20055;-67
2021/08/22 09:21:01;;;;;;;9.45;8.65;;;;;;;;;;5115557;27;20092;-67
2021/08/22 09:23:44;;;;;;;12.55;11.55;;;;;;;;;;5105414;27;20628;-68
2021/08/22 09:26:28;;;;;;;12.13;11.05;;;;;;;;;;5113139;27;20085;-67
2021/08/22 09:29:13;;;;;;;12.52;11.52;;;;;;;;;;5115230;27;20040;-68
2021/08/22 09:31:59;;;;;;;13.45;12.45;;;;;;;;;;5118829;27;20039;-68
2021/08/22 09:34:48;;;;;;;12.32;11.18;;;;;;;;;;5114101;27;20051;-69
2021/08/22 09:37:41;;;;;;;12.70;11.57;;;;;;;;;;5109155;27;20412;-70
2021/08/22 09:40:26;;;;;;;12.63;11.63;;;;;;;;;;5112836;27;20369;-68
2021/08/22 09:43:13;;;;;;;11.90;10.98;;;;;;;;;;5112135;27;20028;-69
2021/08/22 09:45:58;;;;;;;11.88;10.75;;;;;;;;;;5116503;27;20119;-69
2021/08/22 09:48:43;;;;;;;10.48;9.57;;;;;;;;;;5106110;27;20539;-69
2021/08/22 09:51:10;;;;;;;10.60;9.70;;;;;;;;;;5108474;27;20027;-69
2021/08/22 09:53:54;;;;;;;9.95;9.10;;;;;;;;;;5101453;27;20040;-69
2021/08/22 09:56:39;;;;;;;8.57;7.78;;;;;;;;;;5117465;27;20038;-69
2021/08/22 09:59:05;;;;;;;6.90;6.22;;;;;;;;;;5107336;27;20529;-69
2021/08/22 10:01:50;;;;;;;6.57;5.97;;;;;;;;;;5112294;27;20047;-69
2021/08/22 10:04:26;;;;;;;5.60;5.10;;;;;;;;;;5105221;27;20892;-70
2021/08/22 10:06:58;;;;;;;5.13;4.72;;;;;;;;;;5119239;27;20493;-69
2021/08/22 10:09:25;;;;;;;4.47;3.85;;;;;;;;;;5091841;27;20039;-70
2021/08/22 10:12:00;;;;;;;4.97;4.10;;;;;;;;;;5113864;27;20032;-70
2021/08/22 10:14:26;;;;;;;3.90;3.58;;;;;;;;;;5111769;27;20035;-68
2021/08/22 10:16:53;;;;;;;5.85;5.07;;;;;;;;;;5114651;27;20342;-68
2021/08/22 10:19:24;;;;;;;5.68;5.18;;;;;;;;;;5102697;27;20100;-68
2021/08/22 10:22:18;;;;;;;6.85;6.15;;;;;;;;;;5091148;28;20062;-68
2021/08/22 10:24:48;;;;;;;6.57;5.65;;;;;;;;;;5103976;27;20572;-68
2021/08/22 10:27:33;;;;;;;6.00;5.50;;;;;;;;;;5117496;27;20501;-68
2021/08/22 10:30:03;;;;;;;6.30;5.70;;;;;;;;;;5103565;27;20032;-68
2021/08/22 10:32:33;;;;;;;5.95;5.43;;;;;;;;;;5106503;27;20036;-68
2021/08/22 10:35:12;;;;;;;6.20;5.60;;;;;;;;;;5103339;27;20044;-68
2021/08/22 10:37:39;;;;;;;5.43;5.03;;;;;;;;;;5117455;27;20039;-68
2021/08/22 10:40:23;;;;;;;4.78;4.38;;;;;;;;;;5102186;27;20051;-68
2021/08/22 10:42:50;;;;;;;6.43;5.15;;;;;;;;;;5108925;27;20039;-67
2021/08/22 10:45:35;;;;;;;9.02;6.10;;;;;;;;;;5112226;27;20428;-67
2021/08/22 10:48:01;;;;;;;8.48;7.78;;;;;;;;;;5119437;27;20044;-67
2021/08/22 10:50:27;;;;;;;8.50;7.68;;;;;;;;;;5095781;27;20100;-67
2021/08/22 10:53:13;;;;;;;8.70;7.93;;;;;;;;;;5111832;27;20081;-67
2021/08/22 10:55:39;;;;;;;10.07;8.30;;;;;;;;;;5102908;27;20047;-67
2021/08/22 10:58:05;;;;;;;9.73;8.90;;;;;;;;;;5111725;27;20043;-67
2021/08/22 11:00:34;;;;;;;10.35;9.45;;;;;;;;;;5101399;27;20035;-67
2021/08/22 11:03:01;;;;;;;9.32;8.52;;;;;;;;;;5112405;27;20085;-67
2021/08/22 11:05:28;;;;;;;8.68;7.90;;;;;;;;;;5107710;27;20496;-67
2021/08/22 11:07:55;;;;;;;10.38;9.38;;;;;;;;;;5114021;27;20040;-67
2021/08/22 11:10:23;;;;;;;9.70;8.80;;;;;;;;;;5086526;27;20131;-67
2021/08/22 11:12:50;;;;;;;9.57;8.55;;;;;;;;;;5098826;28;20048;-67
2021/08/22 11:15:30;;;;;;;9.27;8.48;;;;;;;;;;5114482;27;20085;-67
2021/08/22 11:18:00;;;;;;;7.88;7.18;;;;;;;;;;5103652;27;20059;-66
2021/08/22 11:20:28;;;;;;;4.53;3.88;;;;;;;;;;5106071;27;20174;-67
2021/08/22 11:23:17;;;;;;;4.45;2.85;;;;;;;;;;5105151;27;20028;-67
2021/08/22 11:25:44;;;;;;;3.30;2.78;;;;;;;;;;5114821;27;20414;-67
2021/08/22 11:28:11;;;;;;;3.88;3.20;;;;;;;;;;5108772;27;20044;-67
2021/08/22 11:30:38;;;;;;;3.97;2.88;;;;;;;;;;5107635;27;20432;-67
2021/08/22 11:33:05;;;;;;;2.88;2.50;;;;;;;;;;5104683;27;20036;-67
2021/08/22 11:35:31;;;;;;;3.42;2.35;;;;;;;;;;5111434;27;20434;-67
2021/08/22 11:37:59;;;;;;;2.95;2.40;;;;;;;;;;5100986;27;20040;-68
2021/08/22 11:40:26;;;;;;;2.70;2.50;;;;;;;;;;5105733;27;20031;-66
2021/08/22 11:43:00;;;;;;;2.80;2.25;;;;;;;;;;5104833;27;20049;-66
2021/08/22 11:45:28;;;;;;;3.33;1.90;;;;;;;;;;5108498;28;20226;-66
2021/08/22 11:47:56;;;;;;;2.58;1.90;;;;;;;;;;5103522;27;20040;-68
2021/08/22 11:50:23;;;;;;;2.85;2.08;;;;;;;;;;5112882;27;20115;-67
2021/08/22 11:52:51;;;;;;;2.25;2.05;;;;;;;;;;5103896;27;20441;-67
2021/08/22 11:55:19;;;;;;;3.85;2.10;;;;;;;;;;5108674;28;20046;-67
2021/08/22 11:57:45;;;;;;;2.33;1.73;;;;;;;;;;5105025;27;20044;-67
2021/08/22 12:00:13;;;;;;;2.95;2.17;;;;;;;;;;5114361;27;20247;-66
2021/08/22 12:02:39;;;;;;;2.55;2.20;;;;;;;;;;5106077;27;20116;-66
2021/08/22 12:05:13;;;;;;;2.10;1.80;;;;;;;;;;5105656;28;20040;-66
2021/08/22 12:07:39;;;;;;;2.27;1.80;;;;;;;;;;5110967;28;20082;-67
2021/08/22 12:10:06;;;;;;;3.53;1.90;;;;;;;;;;5104523;28;20161;-67
2021/08/22 12:12:39;;;;;;;3.05;2.08;;;;;;;;;;5104158;28;20056;-67
2021/08/22 12:15:09;;;;;;;2.10;1.80;;;;;;;;;;5105872;28;20391;-67
2021/08/22 12:17:35;;;;;;;2.42;2.15;;;;;;;;;;5114258;28;20510;-67
2021/08/22 12:20:20;;;;;;;3.85;2.03;;;;;;;;;;5105302;28;20096;-67
2021/08/22 12:23:03;;;;;;;2.53;1.73;;;;;;;;;;5106961;28;20036;-67
2021/08/22 12:25:29;;;;;;;4.03;1.98;;;;;;;;;;5097455;28;20039;-67
2021/08/22 12:27:55;;;;;;;2.28;1.60;;;;;;;;;;5108747;28;20043;-67
2021/08/22 12:30:31;;;;;;;3.38;1.95;;;;;;;;;;5103988;28;20516;-67
2021/08/22 12:32:57;;;;;;;2.88;2.20;;;;;;;;;;5087804;28;20408;-68
2021/08/22 12:35:25;;;;;;;6.60;2.42;;;;;;;;;;5104551;28;20124;-68
2021/08/22 12:37:51;;;;;;;2.20;1.48;;;;;;;;;;5113496;28;20039;-68
2021/08/22 12:40:24;;;;;;;1.77;1.13;;;;;;;;;;5102669;28;20518;-68
2021/08/22 12:42:51;;;;;;;3.78;1.58;;;;;;;;;;5105720;28;20123;-68
2021/08/22 12:45:17;;;;;;;2.25;1.10;;;;;;;;;;5106612;28;20042;-68
2021/08/22 12:47:43;;;;;;;2.10;1.40;;;;;;;;;;5106569;28;20040;-68
2021/08/22 12:50:11;;;;;;;2.30;1.42;;;;;;;;;;5103050;28;20383;-68
2021/08/22 12:52:37;;;;;;;2.40;1.20;;;;;;;;;;5117461;27;20039;-68
2021/08/22 12:55:03;;;;;;;2.47;1.77;;;;;;;;;;5108716;27;20043;-69
2021/08/22 12:57:29;;;;;;;1.77;1.38;;;;;;;;;;5113549;27;20380;-69
2021/08/22 12:59:55;;;;;;;1.65;1.42;;;;;;;;;;5107380;27;20039;-69
2021/08/22 13:02:21;;;;;;;2.60;1.65;;;;;;;;;;5122750;27;20083;-70
2021/08/22 13:04:47;;;;;;;2.15;1.80;;;;;;;;;;5114907;27;20131;-70
2021/08/22 13:07:13;;;;;;;2.13;1.80;;;;;;;;;;5109606;27;20091;-70
2021/08/22 13:09:40;;;;;;;1.88;1.63;;;;;;;;;;5116121;27;20039;-70
2021/08/22 13:12:06;;;;;;;3.90;1.75;;;;;;;;;;5114184;27;20039;-70
2021/08/22 13:14:33;;;;;;;1.80;1.70;;;;;;;;;;5112878;27;20046;-70
2021/08/22 13:16:59;;;;;;;2.20;1.92;;;;;;;;;;5079193;27;20108;-70
2021/08/22 13:19:25;;;;;;;1.95;1.75;;;;;;;;;;5116456;27;20088;-69
2021/08/22 13:21:54;;;;;;;2.38;1.88;;;;;;;;;;5112514;27;20035;-70
2021/08/22 13:24:21;;;;;;;2.92;1.80;;;;;;;;;;5110155;27;20494;-70
2021/08/22 13:26:47;;;;;;;1.92;1.40;;;;;;;;;;5108194;27;20084;-70
2021/08/22 13:29:13;;;;;;;1.40;1.30;;;;;;;;;;5089977;27;20044;-69
2021/08/22 13:31:39;;;;;;;1.52;1.20;;;;;;;;;;5099636;27;20322;-69
2021/08/22 13:34:06;;;;;;;1.58;1.00;;;;;;;;;;5109061;27;20040;-69
2021/08/22 13:36:33;;;;;;;0.82;0.82;;;;;;;;;;5110660;27;20114;-69
2021/08/22 13:38:59;;;;;;;1.10;0.90;;;;;;;;;;5086537;27;20483;-71
2021/08/22 13:41:25;;;;;;;1.35;1.10;;;;;;;;;;5104280;27;20036;-70
2021/08/22 13:43:51;;;;;;;1.65;0.80;;;;;;;;;;5110039;27;20039;-70
2021/08/22 13:46:18;;;;;;;1.33;1.02;;;;;;;;;;5116762;27;20678;-70
2021/08/22 13:48:44;;;;;;;1.10;1.00;;;;;;;;;;5104245;27;20040;-73
2021/08/22 13:51:12;;;;;;;1.58;1.10;;;;;;;;;;5111148;27;20032;-73
2021/08/22 13:53:38;;;;;;;1.35;0.90;;;;;;;;;;5085915;28;20478;-73
2021/08/22 13:56:05;;;;;;;1.63;1.30;;;;;;;;;;5119150;27;20057;-73
2021/08/22 13:58:31;;;;;;;1.00;0.90;;;;;;;;;;5103086;27;20067;-73
2021/08/22 14:00:57;;;;;;;1.10;1.00;;;;;;;;;;5115088;27;20097;-73
2021/08/22 14:03:23;;;;;;;1.30;1.20;;;;;;;;;;5111033;27;20031;-73
2021/08/22 14:05:49;;;;;;;1.38;1.27;;;;;;;;;;5114604;27;20490;-73
2021/08/22 14:08:16;;;;;;;1.60;1.50;;;;;;;;;;5106710;27;20040;-73
2021/08/22 14:10:42;;;;;;;2.22;1.60;;;;;;;;;;5111509;27;20059;-74
2021/08/22 14:13:08;;;;;;;1.83;1.35;;;;;;;;;;5114205;27;20042;-73
2021/08/22 14:15:35;;;;;;;1.58;1.30;;;;;;;;;;5110479;27;20043;-73
2021/08/22 14:18:02;;;;;;;1.33;1.20;;;;;;;;;;5104330;27;20071;-74
2021/08/22 14:20:28;;;;;;;1.50;1.40;;;;;;;;;;5115147;27;20482;-72
2021/08/22 14:22:54;;;;;;;3.28;1.50;;;;;;;;;;5110965;27;20035;-73
2021/08/22 14:25:21;;;;;;;1.73;1.55;;;;;;;;;;5110650;27;20065;-72
2021/08/22 14:27:47;;;;;;;3.08;1.30;;;;;;;;;;5095678;28;20052;-73
2021/08/22 14:30:14;;;;;;;1.45;1.35;;;;;;;;;;5111265;27;20118;-73